Time;durP1;ratioP1;P1;durP2;ratioP2;P2;SDS_P1;SDS_P2;PMS_P1;PMS_P2;Temp;Humidity;BMP_temperature;BMP_pressure;BME280_temperature;BME280_humidity;BME280_pressure;Samples;Min_cycle;Max_cycle;Signal;HPM_P1;HPM_P2
2023/10/03 00:01:38;;;;;;;39.40;19.75;;;;;;;17.34;100.00;100892.97;5058488;28;20056;-72
2023/10/03 00:04:04;;;;;;;41.83;19.63;;;;;;;17.35;100.00;100886.53;5055670;28;20447;-72
2023/10/03 00:06:30;;;;;;;40.30;19.48;;;;;;;17.36;100.00;100884.66;5051036;28;20020;-71
2023/10/03 00:08:55;;;;;;;40.30;20.33;;;;;;;17.36;100.00;100869.22;5038684;28;20310;-72
2023/10/03 00:11:22;;;;;;;37.50;18.48;;;;;;;17.37;100.00;100872.78;5051444;28;20497;-72
2023/10/03 00:13:49;;;;;;;37.10;18.52;;;;;;;17.37;100.00;100865.50;5051750;28;20385;-72
2023/10/03 00:16:15;;;;;;;41.92;20.13;;;;;;;17.36;100.00;100858.34;5059730;28;20074;-73
2023/10/03 00:18:40;;;;;;;43.70;17.52;;;;;;;17.38;100.00;100850.03;5054737;28;20444;-72
2023/10/03 00:21:05;;;;;;;39.13;19.45;;;;;;;17.36;100.00;100852.91;5048288;28;20132;-72
2023/10/03 00:23:32;;;;;;;40.10;18.88;;;;;;;17.37;100.00;100857.34;5053002;28;20159;-71
2023/10/03 00:25:59;;;;;;;37.50;18.17;;;;;;;17.37;100.00;100851.91;5055731;28;20042;-73
2023/10/03 00:28:26;;;;;;;39.22;18.02;;;;;;;17.35;100.00;100851.22;5055606;28;20025;-71
2023/10/03 00:30:52;;;;;;;36.28;17.75;;;;;;;17.34;100.00;100846.78;5045012;28;20024;-72
2023/10/03 00:33:17;;;;;;;38.55;18.77;;;;;;;17.33;100.00;100842.34;5063979;28;20363;-72
2023/10/03 00:35:43;;;;;;;41.03;18.35;;;;;;;17.33;100.00;100841.50;5058894;28;20033;-72
2023/10/03 00:38:13;;;;;;;39.38;18.17;;;;;;;17.31;100.00;100833.53;5057264;28;20119;-72
2023/10/03 00:40:40;;;;;;;39.00;19.52;;;;;;;17.30;100.00;100829.09;5059568;28;20024;-72
2023/10/03 00:43:07;;;;;;;39.95;19.02;;;;;;;17.28;100.00;100825.69;5061759;28;20106;-72
2023/10/03 00:45:33;;;;;;;39.85;18.40;;;;;;;17.25;100.00;100824.13;5057904;28;20484;-72
2023/10/03 00:48:01;;;;;;;35.63;17.00;;;;;;;17.24;100.00;100811.56;5063170;28;20483;-72
2023/10/03 00:50:28;;;;;;;40.58;17.05;;;;;;;17.22;100.00;100807.28;5052274;28;20459;-72
2023/10/03 00:52:57;;;;;;;37.63;18.83;;;;;;;17.22;100.00;100796.41;5051781;28;20060;-72
2023/10/03 00:55:26;;;;;;;41.10;19.27;;;;;;;17.22;100.00;100791.88;5057581;28;20123;-72
2023/10/03 00:58:24;;;;;;;39.43;18.70;;;;;;;17.22;100.00;100791.88;5065837;28;20085;-72
2023/10/03 01:00:49;;;;;;;42.22;19.02;;;;;;;17.21;100.00;100779.28;5051445;28;20098;-69
2023/10/03 01:03:28;;;;;;;39.42;18.42;;;;;;;17.22;100.00;100774.69;5052408;28;20029;-70
2023/10/03 01:05:58;;;;;;;37.47;18.50;;;;;;;17.21;100.00;100767.56;5043824;28;20036;-69
2023/10/03 01:08:23;;;;;;;;;;;;;;;17.26;100.00;100759.78;5052931;28;20082;-69
2023/10/03 01:10:50;;;;;;;38.15;17.80;;;;;;;17.22;100.00;100761.13;5058365;28;20014;-70
2023/10/03 01:13:16;;;;;;;41.85;18.52;;;;;;;17.20;100.00;100750.41;5054321;28;20064;-69
2023/10/03 01:15:42;;;;;;;35.40;17.35;;;;;;;17.20;100.00;100746.84;5051982;28;20476;-69
2023/10/03 01:18:12;;;;;;;44.20;18.63;;;;;;;17.19;100.00;100748.72;5046532;28;20021;-69
2023/10/03 01:20:40;;;;;;;37.33;17.58;;;;;;;17.20;100.00;100744.97;5045358;28;20440;-69
2023/10/03 01:23:10;;;;;;;37.70;17.08;;;;;;;17.19;100.00;100747.84;5055765;28;20071;-69
2023/10/03 01:25:43;;;;;;;37.25;18.05;;;;;;;17.20;100.00;100747.69;5051289;28;20047;-70
2023/10/03 01:28:09;;;;;;;35.40;17.25;;;;;;;17.17;100.00;100739.03;5052982;28;20031;-69
2023/10/03 01:30:36;;;;;;;34.55;16.77;;;;;;;17.19;100.00;100737.00;5058427;28;20128;-69
2023/10/03 01:33:02;;;;;;;36.47;16.10;;;;;;;17.19;100.00;100734.28;5054251;28;20031;-69
2023/10/03 01:35:27;;;;;;;36.53;16.95;;;;;;;17.21;100.00;100732.28;5051390;28;20025;-69
2023/10/03 01:37:52;;;;;;;38.17;17.23;;;;;;;17.22;100.00;100732.09;5049489;28;20064;-69
2023/10/03 01:40:18;;;;;;;34.78;16.35;;;;;;;17.24;100.00;100726.50;5040989;28;20378;-69
2023/10/03 01:42:46;;;;;;;37.60;16.13;;;;;;;17.27;100.00;100728.91;5055523;28;20395;-68
2023/10/03 01:45:22;;;;;;;33.92;17.10;;;;;;;17.26;100.00;100722.63;5055629;28;20043;-69
2023/10/03 01:47:50;;;;;;;40.53;17.38;;;;;;;17.27;100.00;100726.19;5047460;28;20060;-69
2023/10/03 01:50:17;;;;;;;38.58;16.25;;;;;;;17.29;100.00;100729.59;5061556;28;20121;-69
2023/10/03 01:52:43;;;;;;;34.85;16.85;;;;;;;17.31;100.00;100727.59;5050796;28;20119;-69
2023/10/03 01:55:12;;;;;;;34.92;15.85;;;;;;;17.32;100.00;100720.28;5056896;28;20025;-69
2023/10/03 01:57:37;;;;;;;34.60;16.02;;;;;;;17.35;100.00;100734.41;5046830;28;20036;-69
2023/10/03 02:00:18;;;;;;;34.22;15.38;;;;;;;17.39;100.00;100724.06;5043929;28;20381;-69
2023/10/03 02:02:43;;;;;;;33.53;15.65;;;;;;;17.40;100.00;100721.19;5046785;28;20110;-70
2023/10/03 02:05:09;;;;;;;32.70;14.98;;;;;;;17.42;100.00;100723.75;5050668;28;20448;-69
2023/10/03 02:07:34;;;;;;;35.97;16.30;;;;;;;17.46;100.00;100716.97;5056054;28;20029;-69
2023/10/03 02:10:01;;;;;;;35.38;16.70;;;;;;;17.47;100.00;100719.53;5060567;28;20062;-72
2023/10/03 02:12:27;;;;;;;36.38;15.70;;;;;;;17.49;100.00;100713.94;5051003;28;20033;-72
2023/10/03 02:14:54;;;;;;;37.70;17.02;;;;;;;17.51;100.00;100702.91;5063429;28;20033;-72
2023/10/03 02:17:19;;;;;;;35.53;15.82;;;;;;;17.51;100.00;100698.34;5058590;28;20028;-72
2023/10/03 02:19:45;;;;;;;30.67;14.25;;;;;;;17.52;100.00;100691.88;5059304;28;20028;-73
2023/10/03 02:22:12;;;;;;;33.60;15.50;;;;;;;17.54;100.00;100680.84;5061209;28;20051;-72
2023/10/03 02:24:38;;;;;;;35.45;16.65;;;;;;;17.56;100.00;100668.81;5049824;28;20400;-72
2023/10/03 02:27:05;;;;;;;31.70;15.40;;;;;;;17.57;100.00;100675.06;5060521;28;20104;-73
2023/10/03 02:29:31;;;;;;;35.55;16.33;;;;;;;17.57;100.00;100689.53;5057972;28;20191;-72
2023/10/03 02:31:58;;;;;;;39.05;16.42;;;;;;;17.58;100.00;100704.81;5063704;28;20108;-72
2023/10/03 02:34:23;;;;;;;32.42;14.77;;;;;;;17.59;100.00;100695.66;5049183;28;20147;-72
2023/10/03 02:36:48;;;;;;;40.95;15.70;;;;;;;17.61;100.00;100701.78;5054074;28;20108;-72
2023/10/03 02:39:14;;;;;;;35.45;16.15;;;;;;;17.62;100.00;100700.75;5049796;28;20024;-72
2023/10/03 02:41:39;;;;;;;29.50;13.48;;;;;;;17.64;100.00;100692.44;5061506;28;20028;-72
2023/10/03 02:44:07;;;;;;;35.63;17.00;;;;;;;17.63;100.00;100699.75;5055687;28;20020;-72
2023/10/03 02:46:33;;;;;;;33.92;15.05;;;;;;;17.64;100.00;100692.44;5057362;28;20133;-73
2023/10/03 02:48:59;;;;;;;32.47;14.48;;;;;;;17.67;100.00;100708.41;5058185;28;20043;-73
2023/10/03 02:51:24;;;;;;;31.35;13.45;;;;;;;17.67;100.00;100697.53;5049086;28;20424;-72
2023/10/03 02:53:52;;;;;;;31.83;13.80;;;;;;;17.66;100.00;100709.44;5041647;28;20029;-72
2023/10/03 02:56:18;;;;;;;31.20;14.32;;;;;;;17.67;100.00;100707.56;5057898;28;20024;-72
2023/10/03 02:58:43;;;;;;;33.00;15.10;;;;;;;17.67;100.00;100708.41;5044866;28;20029;-72
2023/10/03 03:01:09;;;;;;;31.77;14.27;;;;;;;17.68;100.00;100710.13;5047047;28;20116;-73
2023/10/03 03:03:34;;;;;;;36.10;13.57;;;;;;;17.71;100.00;100707.06;5058742;28;20115;-72
2023/10/03 03:06:02;;;;;;;35.17;15.20;;;;;;;17.74;100.00;100709.47;5050452;28;20033;-73
2023/10/03 03:08:29;;;;;;;29.70;12.48;;;;;;;17.79;100.00;100698.97;5039158;28;20043;-73
2023/10/03 03:10:57;;;;;;;29.00;13.48;;;;;;;17.88;100.00;100693.53;5048918;28;20061;-72
2023/10/03 03:13:33;;;;;;;28.48;11.85;;;;;;;17.94;100.00;100703.81;5053805;28;20428;-72
2023/10/03 03:16:11;;;;;;;26.98;10.90;;;;;;;17.98;100.00;100703.31;5058240;28;20060;-72
2023/10/03 03:18:41;;;;;;;33.50;11.90;;;;;;;17.99;100.00;100706.88;5046870;28;20039;-72
2023/10/03 03:21:15;;;;;;;27.38;11.25;;;;;;;18.01;100.00;100710.31;5050317;28;20653;-69
2023/10/03 03:23:46;;;;;;;28.88;12.23;;;;;;;18.02;100.00;100701.13;5044305;28;20094;-69
2023/10/03 03:28:44;;;;;;;32.28;12.30;;;;;;;17.98;100.00;100699.75;5047972;28;20037;-70
2023/10/03 03:31:20;;;;;;;31.33;13.35;;;;;;;17.96;100.00;100697.19;5040536;28;20112;-69
2023/10/03 03:33:46;;;;;;;28.42;12.50;;;;;;;17.96;100.00;100699.91;5051779;28;20028;-69
2023/10/03 03:36:18;;;;;;;28.73;11.10;;;;;;;17.95;100.00;100691.91;5059826;28;20032;-69
2023/10/03 03:38:48;;;;;;;28.25;12.88;;;;;;;17.96;100.00;100697.19;5058664;28;20052;-69
2023/10/03 03:41:15;;;;;;;28.08;11.43;;;;;;;17.96;100.00;100702.63;5055027;28;20503;-69
2023/10/03 03:43:41;;;;;;;28.63;11.63;;;;;;;17.96;100.00;100697.19;5063240;28;20638;-70
2023/10/03 03:46:07;;;;;;;26.98;11.18;;;;;;;17.96;100.00;100702.63;5057589;28;20055;-69
2023/10/03 03:48:34;;;;;;;27.85;11.95;;;;;;;17.98;100.00;100706.03;5064069;28;20040;-69
2023/10/03 03:51:00;;;;;;;27.75;11.95;;;;;;;17.97;100.00;100708.94;5054033;28;20095;-69
2023/10/03 03:53:25;;;;;;;27.00;11.55;;;;;;;17.99;100.00;100704.16;5064011;28;20590;-68
2023/10/03 03:55:54;;;;;;;29.23;10.40;;;;;;;17.99;100.00;100715.03;5066601;28;20036;-70
2023/10/03 03:58:19;;;;;;;26.75;11.18;;;;;;;18.00;100.00;100711.31;5056442;28;20019;-70
2023/10/03 04:00:50;;;;;;;25.73;10.30;;;;;;;18.02;100.00;100722.88;5061648;28;20016;-69
2023/10/03 04:03:17;;;;;;;24.30;9.75;;;;;;;18.04;100.00;100719.97;5053186;28;20036;-69
2023/10/03 04:05:43;;;;;;;28.70;10.32;;;;;;;18.05;100.00;100724.41;5063828;28;20029;-69
2023/10/03 04:08:08;;;;;;;24.42;9.60;;;;;;;18.07;100.00;100725.97;5043490;28;20481;-69
2023/10/03 04:10:36;;;;;;;24.10;9.40;;;;;;;18.07;100.00;100730.53;5061659;28;20025;-70
2023/10/03 04:13:08;;;;;;;22.10;8.98;;;;;;;18.08;100.00;100738.56;5049227;28;20476;-69
2023/10/03 04:15:33;;;;;;;24.73;9.43;;;;;;;18.08;100.00;100738.56;5051432;28;20053;-69
2023/10/03 04:17:58;;;;;;;21.88;9.07;;;;;;;18.09;100.00;100731.22;5054268;28;20033;-69
2023/10/03 04:20:30;;;;;;;26.35;8.45;;;;;;;18.09;100.00;100745.66;5060278;28;20056;-70
2023/10/03 04:22:59;;;;;;;24.70;8.80;;;;;;;18.10;100.00;100741.09;5040857;28;20484;-69
2023/10/03 04:25:25;;;;;;;23.10;8.93;;;;;;;18.11;100.00;100756.38;5047850;28;20106;-69
2023/10/03 04:27:58;;;;;;;24.05;8.05;;;;;;;18.11;100.00;100751.81;5050229;28;20558;-69
2023/10/03 04:30:25;;;;;;;25.75;8.82;;;;;;;18.12;100.00;100764.38;5043756;28;20034;-73
2023/10/03 04:32:52;;;;;;;24.85;9.20;;;;;;;18.12;100.00;100760.81;5052348;28;20028;-72
2023/10/03 04:35:18;;;;;;;28.38;8.55;;;;;;;18.13;100.00;100765.25;5055401;28;20021;-73
2023/10/03 04:37:51;;;;;;;27.63;7.55;;;;;;;18.13;100.00;100757.09;5048842;28;20029;-72
2023/10/03 04:40:22;;;;;;;18.60;6.78;;;;;;;18.12;100.00;100772.53;5049423;28;20024;-72
2023/10/03 04:42:52;;;;;;;19.10;7.03;;;;;;;18.12;100.00;100769.81;5057913;28;20501;-72
2023/10/03 04:45:20;;;;;;;19.30;6.63;;;;;;;18.11;100.00;100768.13;5046756;28;20086;-72
2023/10/03 04:47:47;;;;;;;18.98;7.03;;;;;;;18.11;100.00;100776.28;5049884;28;20103;-71
2023/10/03 04:50:17;;;;;;;18.42;6.60;;;;;;;18.10;100.00;100790.06;5050008;28;20024;-73
2023/10/03 04:52:43;;;;;;;21.33;7.35;;;;;;;18.08;100.00;100783.91;5065141;28;20031;-73
2023/10/03 04:55:09;;;;;;;17.95;6.68;;;;;;;18.08;100.00;100792.94;5059618;28;20473;-72
2023/10/03 04:57:34;;;;;;;20.55;7.50;;;;;;;18.06;100.00;100796.84;5049296;28;20116;-72
2023/10/03 05:00:00;;;;;;;18.08;6.82;;;;;;;18.04;100.00;100796.13;5053907;28;20083;-72
2023/10/03 05:02:28;;;;;;;21.00;7.05;;;;;;;18.02;100.00;100781.84;5054630;28;20032;-72
2023/10/03 05:04:54;;;;;;;22.10;7.07;;;;;;;17.99;100.00;100783.91;5054408;28;20021;-72
2023/10/03 05:07:19;;;;;;;17.90;6.60;;;;;;;17.99;100.00;100781.19;5055622;28;20032;-72
2023/10/03 05:09:45;;;;;;;20.98;7.38;;;;;;;17.96;100.00;100805.94;5042391;28;20117;-72
2023/10/03 05:12:10;;;;;;;20.13;7.55;;;;;;;17.95;100.00;100809.69;5055526;28;20470;-72
2023/10/03 05:14:42;;;;;;;26.70;7.22;;;;;;;17.94;100.00;100823.47;5058377;28;20053;-72
2023/10/03 05:17:07;;;;;;;20.70;7.22;;;;;;;17.91;100.00;100835.50;5055126;28;20020;-72
2023/10/03 05:19:33;;;;;;;22.65;7.10;;;;;;;17.90;100.00;100844.66;5053052;28;20576;-72
2023/10/03 05:21:58;;;;;;;24.05;7.63;;;;;;;17.89;100.00;100842.06;5056576;28;20119;-73
2023/10/03 05:24:25;;;;;;;21.25;7.80;;;;;;;17.88;100.00;100840.38;5056310;28;20033;-73
2023/10/03 05:26:51;;;;;;;19.45;7.10;;;;;;;17.86;100.00;100815.22;5054293;28;20056;-73
2023/10/03 05:29:17;;;;;;;23.95;7.80;;;;;;;17.83;100.00;100805.50;5059625;28;20032;-72
2023/10/03 05:31:43;;;;;;;19.80;7.50;;;;;;;17.81;100.00;100807.56;5048020;28;20506;-73
2023/10/03 05:34:09;;;;;;;22.33;7.90;;;;;;;17.79;100.00;100815.03;5060296;28;20033;-73
2023/10/03 05:36:35;;;;;;;19.25;7.38;;;;;;;17.78;100.00;100807.88;5044352;28;20482;-72
2023/10/03 05:39:00;;;;;;;19.33;7.10;;;;;;;17.76;100.00;100812.59;5053694;28;20447;-69
2023/10/03 05:41:26;;;;;;;20.42;8.15;;;;;;;17.74;100.00;100822.78;5045111;28;20036;-72
2023/10/03 05:43:52;;;;;;;26.77;7.60;;;;;;;17.74;100.00;100831.78;5042736;28;20029;-73
2023/10/03 05:46:17;;;;;;;21.92;7.78;;;;;;;17.72;100.00;100816.69;5043651;28;20053;-72
2023/10/03 05:48:43;;;;;;;23.10;7.95;;;;;;;17.71;100.00;100823.13;5045111;28;20124;-73
2023/10/03 05:51:09;;;;;;;21.05;7.85;;;;;;;17.70;100.00;100821.41;5038678;28;20032;-73
2023/10/03 05:53:35;;;;;;;19.48;7.32;;;;;;;17.69;100.00;100831.44;5050710;28;20626;-73
2023/10/03 05:56:01;;;;;;;18.70;6.50;;;;;;;17.69;100.00;100823.28;5060238;28;20095;-73
2023/10/03 05:58:27;;;;;;;22.63;7.25;;;;;;;17.68;100.00;100820.72;5066238;28;20496;-73
2023/10/03 06:00:52;;;;;;;19.33;7.22;;;;;;;17.66;100.00;100823.59;5056857;28;20022;-73
2023/10/03 06:03:17;;;;;;;21.83;6.65;;;;;;;17.66;100.00;100837.19;5049865;28;20032;-73
2023/10/03 06:05:43;;;;;;;18.27;6.22;;;;;;;17.65;100.00;100830.03;5054933;28;20025;-72
2023/10/03 06:08:12;;;;;;;18.13;6.55;;;;;;;17.64;100.00;100834.63;5042253;28;20055;-73
2023/10/03 06:10:41;;;;;;;18.83;6.30;;;;;;;17.63;100.00;100832.06;5043663;28;20485;-72
2023/10/03 06:13:12;;;;;;;19.77;7.00;;;;;;;17.62;100.00;100835.78;5060134;28;20021;-73
2023/10/03 06:15:41;;;;;;;22.17;7.30;;;;;;;17.60;100.00;100827.81;5036624;28;20021;-73
2023/10/03 06:18:08;;;;;;;18.60;6.75;;;;;;;17.60;100.00;100832.38;5056251;28;20037;-73
2023/10/03 06:20:34;;;;;;;21.95;8.02;;;;;;;17.60;100.00;100844.09;5054752;28;20079;-73
2023/10/03 06:22:59;;;;;;;22.13;7.47;;;;;;;17.59;100.00;100847.81;5060398;28;20060;-72
2023/10/03 06:25:25;;;;;;;19.48;7.10;;;;;;;17.59;100.00;100852.44;5053688;28;20048;-73
2023/10/03 06:27:50;;;;;;;19.05;6.78;;;;;;;17.58;100.00;100856.97;5053619;28;20029;-72
2023/10/03 06:30:17;;;;;;;22.00;8.20;;;;;;;17.57;100.00;100857.16;5043110;28;20022;-73
2023/10/03 06:32:44;;;;;;;20.63;7.35;;;;;;;17.56;100.00;100852.75;5063170;28;20060;-73
2023/10/03 06:35:09;;;;;;;19.30;7.07;;;;;;;17.56;100.00;100855.47;5057580;28;20041;-73
2023/10/03 06:37:36;;;;;;;19.00;7.43;;;;;;;17.55;100.00;100860.03;5048455;28;20028;-72
2023/10/03 06:40:08;;;;;;;22.08;7.07;;;;;;;17.55;100.00;100856.47;5061173;28;20058;-73
2023/10/03 06:42:34;;;;;;;21.13;7.75;;;;;;;17.54;100.00;100863.78;5048349;28;20376;-72
2023/10/03 06:45:01;;;;;;;24.80;7.85;;;;;;;17.54;100.00;100865.63;5051405;28;20051;-73
2023/10/03 06:47:26;;;;;;;20.63;7.47;;;;;;;17.54;100.00;100877.34;5054303;28;20047;-72
2023/10/03 06:49:51;;;;;;;24.77;7.60;;;;;;;17.55;100.00;100880.91;5050737;28;20021;-72
2023/10/03 06:52:17;;;;;;;28.65;7.85;;;;;;;17.53;100.00;100886.50;5051190;28;20021;-73
2023/10/03 06:54:42;;;;;;;20.77;7.13;;;;;;;17.54;100.00;100892.78;5060545;28;20036;-72
2023/10/03 06:57:08;;;;;;;22.20;6.85;;;;;;;17.54;100.00;100898.22;5057916;28;20025;-73
2023/10/03 06:59:33;;;;;;;24.85;8.07;;;;;;;17.54;100.00;100900.94;5040843;28;20664;-73
2023/10/03 07:01:59;;;;;;;20.80;7.68;;;;;;;17.53;100.00;100894.66;5050261;28;20047;-73
2023/10/03 07:04:24;;;;;;;21.65;7.55;;;;;;;17.54;100.00;100904.53;5060957;28;20025;-73
2023/10/03 07:06:50;;;;;;;20.58;7.55;;;;;;;17.54;100.00;100903.66;5061655;28;20090;-73
2023/10/03 07:09:17;;;;;;;18.88;6.70;;;;;;;17.54;100.00;100906.38;5055505;28;20059;-73
2023/10/03 07:11:42;;;;;;;23.80;6.95;;;;;;;17.52;100.00;100900.25;5047571;28;20029;-72
2023/10/03 07:14:12;;;;;;;24.05;8.18;;;;;;;17.52;100.00;100900.25;5056893;28;20103;-74
2023/10/03 07:16:39;;;;;;;23.75;8.68;;;;;;;17.51;100.00;100907.56;5060104;28;20029;-73
2023/10/03 07:19:05;;;;;;;21.67;8.18;;;;;;;17.50;100.00;100902.25;5037272;28;20028;-72
2023/10/03 07:21:30;;;;;;;20.08;7.85;;;;;;;17.48;100.00;100916.00;5045852;28;20666;-72
2023/10/03 07:23:56;;;;;;;24.08;9.57;;;;;;;17.44;100.00;100912.75;5047551;28;20040;-72
2023/10/03 07:26:22;;;;;;;27.08;9.77;;;;;;;17.43;100.00;100916.47;5054443;28;20111;-72
2023/10/03 07:28:47;;;;;;;24.13;8.80;;;;;;;17.41;100.00;100909.47;5054463;28;20115;-71
2023/10/03 07:31:13;;;;;;;22.63;9.23;;;;;;;17.37;100.00;100911.69;5052198;28;20536;-72
2023/10/03 07:33:43;;;;;;;22.33;8.25;;;;;;;17.36;100.00;100906.41;5043609;28;20025;-73
2023/10/03 07:36:09;;;;;;;20.45;8.48;;;;;;;17.36;100.00;100919.97;5042348;28;20033;-72
2023/10/03 07:38:34;;;;;;;21.27;8.57;;;;;;;17.36;100.00;100919.97;5043605;28;20101;-73
2023/10/03 07:41:05;;;;;;;24.23;9.93;;;;;;;17.36;100.00;100909.13;5050485;28;20274;-72
2023/10/03 07:43:30;;;;;;;23.75;9.00;;;;;;;17.35;100.00;100921.84;5040597;28;20040;-72
2023/10/03 07:45:55;;;;;;;21.48;8.52;;;;;;;17.37;100.00;100938.84;5045842;28;20028;-72
2023/10/03 07:48:21;;;;;;;22.00;8.35;;;;;;;17.36;100.00;100945.28;5052094;28;20194;-72
2023/10/03 07:50:47;;;;;;;21.08;8.48;;;;;;;17.36;100.00;100955.28;5062088;28;20419;-73
2023/10/03 07:53:12;;;;;;;21.65;9.02;;;;;;;17.36;100.00;100961.56;5058913;28;20357;-73
2023/10/03 07:55:41;;;;;;;21.08;9.13;;;;;;;17.35;100.00;100954.44;5042868;28;20066;-72
2023/10/03 07:58:06;;;;;;;22.35;7.93;;;;;;;17.34;100.00;100941.88;5045713;28;20031;-73
2023/10/03 08:00:33;;;;;;;21.55;8.95;;;;;;;17.35;100.00;100949.03;5050331;28;20033;-69
2023/10/03 08:02:58;;;;;;;18.77;7.80;;;;;;;17.34;100.00;100946.47;5039666;28;20484;-70
2023/10/03 08:05:27;;;;;;;20.75;7.85;;;;;;;17.35;100.00;100969.88;5062766;28;20050;-69
2023/10/03 08:07:54;;;;;;;22.42;7.75;;;;;;;17.35;100.00;100980.75;5058296;28;20507;-70
2023/10/03 08:10:19;;;;;;;24.85;8.65;;;;;;;17.34;100.00;100998.91;5044246;28;20059;-70
2023/10/03 08:12:47;;;;;;;24.13;8.85;;;;;;;17.33;100.00;101015.38;5061656;28;20051;-70
2023/10/03 08:15:18;;;;;;;21.35;8.55;;;;;;;17.29;100.00;101007.53;5058113;28;20032;-70
2023/10/03 08:17:48;;;;;;;22.13;8.40;;;;;;;17.27;100.00;101000.53;5057017;28;20468;-70
2023/10/03 08:20:18;;;;;;;20.73;6.57;;;;;;;17.21;100.00;101023.72;5042048;28;20025;-69
2023/10/03 08:22:53;;;;;;;21.42;6.93;;;;;;;17.17;100.00;101038.59;5057419;28;20137;-69
2023/10/03 08:25:23;;;;;;;18.60;6.00;;;;;;;17.14;100.00;101032.63;5045738;28;20025;-70
2023/10/03 08:27:49;;;;;;;16.02;5.20;;;;;;;17.12;100.00;101028.19;5056407;28;20500;-70
2023/10/03 08:30:28;;;;;;;17.80;5.28;;;;;;;17.08;100.00;101031.38;5059523;28;20056;-70
2023/10/03 08:33:04;;;;;;;18.77;5.13;;;;;;;17.09;100.00;101054.81;5061724;28;20070;-69
2023/10/03 08:35:39;;;;;;;15.60;4.72;;;;;;;17.06;100.00;101042.38;5052664;28;20119;-70
2023/10/03 08:38:10;;;;;;;14.88;4.25;;;;;;;17.07;100.00;101048.66;5048918;28;20033;-69
2023/10/03 08:40:40;;;;;;;17.38;4.70;;;;;;;17.06;100.00;101053.25;5049709;28;20112;-70
2023/10/03 08:43:10;;;;;;;19.90;4.05;;;;;;;17.08;100.00;101059.38;5036806;28;20029;-71
2023/10/03 08:45:52;;;;;;;13.82;4.20;;;;;;;17.07;100.00;101070.38;5037144;28;20035;-69
2023/10/03 08:48:24;;;;;;;16.48;4.28;;;;;;;17.09;100.00;101079.25;5048471;28;20405;-70
2023/10/03 08:50:53;;;;;;;9.32;3.25;;;;;;;17.10;100.00;101089.09;5051151;28;20033;-69
2023/10/03 08:53:26;;;;;;;12.60;3.38;;;;;;;17.10;100.00;101086.38;5045470;28;20087;-70
2023/10/03 08:55:59;;;;;;;8.90;3.08;;;;;;;17.05;100.00;101084.13;5040653;28;20154;-70
2023/10/03 08:58:26;;;;;;;11.90;3.53;;;;;;;17.04;100.00;101109.59;5046589;28;20032;-69
2023/10/03 09:00:58;;;;;;;7.28;2.25;;;;;;;17.02;100.00;101117.00;5046361;28;20029;-71
2023/10/03 09:06:19;;;;;;;3.80;1.55;;;;;;;16.88;100.00;101133.75;5050213;28;20124;-69
2023/10/03 09:08:45;;;;;;;4.28;1.63;;;;;;;16.81;100.00;101127.16;5055161;28;20078;-70
2023/10/03 09:11:13;;;;;;;8.15;2.35;;;;;;;16.73;100.00;101145.03;5048188;28;20310;-69
2023/10/03 09:13:39;;;;;;;7.82;1.60;;;;;;;16.71;100.00;101135.34;5041991;28;20492;-69
2023/10/03 09:16:14;;;;;;;3.58;1.67;;;;;;;16.67;100.00;101140.19;5049081;28;20044;-70
2023/10/03 09:18:41;;;;;;;7.60;1.70;;;;;;;16.68;100.00;101157.38;5048630;28;20055;-71
2023/10/03 09:21:16;;;;;;;6.03;1.88;;;;;;;16.65;100.00;101172.06;5043957;28;20053;-70
2023/10/03 09:24:01;;;;;;;4.43;1.65;;;;;;;16.66;100.00;101179.22;5053005;28;20547;-70
2023/10/03 09:26:47;;;;;;;7.35;2.05;;;;;;;16.64;100.00;101188.50;5052120;28;20025;-69
2023/10/03 09:29:30;;;;;;;6.82;1.83;;;;;;;16.64;100.00;101181.19;5037151;28;20049;-72
2023/10/03 09:31:57;;;;;;;8.13;2.30;;;;;;;16.66;100.00;101197.34;5046844;28;20037;-72
2023/10/03 09:34:32;;;;;;;11.05;2.40;;;;;;;16.65;100.00;101198.31;5038093;28;20025;-73
2023/10/03 09:37:02;;;;;;;7.78;2.20;;;;;;;16.64;100.00;101194.78;5041789;28;20435;-72
2023/10/03 09:39:29;;;;;;;4.03;1.60;;;;;;;16.65;100.00;101196.50;5050426;28;20021;-72
2023/10/03 09:41:55;;;;;;;7.65;1.85;;;;;;;16.59;100.00;101202.50;5045131;28;20100;-72
2023/10/03 09:44:29;;;;;;;7.53;2.20;;;;;;;16.58;100.00;101193.47;5051245;28;20032;-72
2023/10/03 09:47:04;;;;;;;7.47;1.98;;;;;;;16.57;100.00;101199.06;5053382;28;20089;-72
2023/10/03 09:49:38;;;;;;;7.47;2.15;;;;;;;16.54;100.00;101205.63;5034154;28;20388;-72
2023/10/03 09:52:09;;;;;;;5.47;1.83;;;;;;;16.52;100.00;101215.78;5032746;28;20113;-72
2023/10/03 09:54:36;;;;;;;7.45;2.33;;;;;;;16.52;100.00;101210.34;5037226;28;20029;-72
2023/10/03 09:57:15;;;;;;;6.70;1.92;;;;;;;16.52;100.00;101217.63;5047330;28;20037;-73
2023/10/03 09:59:41;;;;;;;9.47;2.10;;;;;;;16.53;100.00;101220.22;5054432;28;20029;-72
2023/10/03 10:02:12;;;;;;;8.23;2.53;;;;;;;16.55;100.00;101225.50;5048596;28;20287;-73
2023/10/03 10:04:39;;;;;;;6.28;2.15;;;;;;;16.54;100.00;101224.59;5038335;28;20132;-72
2023/10/03 10:07:17;;;;;;;7.10;1.88;;;;;;;16.57;100.00;101242.47;5048977;28;20514;-72
2023/10/03 10:10:09;;;;;;;10.45;2.10;;;;;;;16.62;100.00;101248.34;5049081;28;20060;-72
2023/10/03 10:12:38;;;;;;;6.20;2.67;;;;;;;16.58;100.00;101238.78;5043803;28;20033;-73
2023/10/03 10:17:52;;;;;;;8.35;2.53;;;;;;;16.57;100.00;101269.59;5050833;28;21758;-72
2023/10/03 10:20:27;;;;;;;8.05;2.20;;;;;;;16.55;100.00;101277.03;5041062;28;20060;-73
2023/10/03 10:25:43;;;;;;;15.15;2.20;;;;;;;16.48;100.00;101293.00;5036756;28;20067;-72
2023/10/03 10:28:09;;;;;;;11.52;2.85;;;;;;;16.50;100.00;101290.16;5032156;28;20078;-72
2023/10/03 10:30:36;;;;;;;12.75;2.35;;;;;;;16.50;100.00;101295.59;5045272;28;20036;-73
2023/10/03 10:33:17;;;;;;;10.27;2.78;;;;;;;16.50;100.00;101292.88;5044108;28;20495;-72
2023/10/03 10:36:03;;;;;;;10.27;2.13;;;;;;;16.50;100.00;101299.19;5037623;28;20488;-73
2023/10/03 10:38:31;;;;;;;10.63;2.75;;;;;;;16.52;100.00;101299.03;5038754;28;20084;-72
2023/10/03 10:41:11;;;;;;;7.07;2.25;;;;;;;16.55;100.00;101309.59;5036804;28;20031;-72
2023/10/03 10:44:06;;;;;;;5.18;1.60;;;;;;;16.58;100.00;101323.75;5039792;28;20047;-72
2023/10/03 10:46:38;;;;;;;2.95;1.25;;;;;;;16.51;100.00;101321.72;5046862;28;20036;-73
2023/10/03 10:49:06;;;;;;;2.45;1.20;;;;;;;16.46;100.00;101327.59;5054271;28;20024;-73
2023/10/03 10:51:33;;;;;;;2.95;0.82;;;;;;;16.42;100.00;101339.69;5038944;28;20467;-73
2023/10/03 10:54:00;;;;;;;3.92;1.10;;;;;;;16.38;100.00;101344.56;5050992;28;20039;-72
2023/10/03 10:56:27;;;;;;;2.25;1.10;;;;;;;16.34;100.00;101344.94;5056077;28;20017;-72
2023/10/03 10:59:01;;;;;;;2.67;0.98;;;;;;;16.30;100.00;101340.81;5059710;28;20136;-72
2023/10/03 11:01:27;;;;;;;3.70;1.15;;;;;;;16.25;100.00;101346.63;5054275;28;20389;-72
2023/10/03 11:03:53;;;;;;;2.22;1.23;;;;;;;16.21;100.00;101356.91;5054807;28;20028;-73
2023/10/03 11:06:19;;;;;;;7.70;1.48;;;;;;;16.17;100.00;101352.75;5046408;28;20071;-72
2023/10/03 11:08:48;;;;;;;4.97;1.48;;;;;;;16.16;100.00;101358.31;5046340;28;20025;-72
2023/10/03 11:11:15;;;;;;;7.90;1.80;;;;;;;16.18;100.00;101370.75;5059027;28;20492;-72
2023/10/03 11:13:48;;;;;;;3.33;1.48;;;;;;;16.17;100.00;101360.03;5054622;28;20021;-73
2023/10/03 11:16:25;;;;;;;4.20;1.58;;;;;;;16.23;100.00;101359.50;5038388;28;20094;-73
2023/10/03 11:18:51;;;;;;;6.18;1.70;;;;;;;16.18;100.00;101375.28;5040237;28;20029;-72
2023/10/03 11:21:18;;;;;;;3.40;1.15;;;;;;;16.10;100.00;101356.16;5044465;28;20127;-72
2023/10/03 11:24:15;;;;;;;8.07;1.98;;;;;;;16.12;100.00;101352.31;5043208;28;20419;-72
2023/10/03 11:26:51;;;;;;;5.05;1.42;;;;;;;16.17;100.00;101362.75;5039922;28;20478;-72